createdAt,value
2019-03-12T00:00:23.974Z,98686.12
2019-03-12T00:02:52.689Z,98686.01
2019-03-12T00:05:21.411Z,98675.03
2019-03-12T00:07:50.170Z,98679.62
2019-03-12T00:10:18.890Z,98687.25
2019-03-12T00:12:47.610Z,98697.73
2019-03-12T00:15:16.609Z,98701.20
2019-03-12T00:17:45.326Z,98717.38
2019-03-12T00:20:14.043Z,98714.34
2019-03-12T00:22:42.798Z,98706.20
2019-03-12T00:25:11.524Z,98709.59
2019-03-12T00:27:40.259Z,98693.13
2019-03-12T00:30:10.881Z,98705.70
2019-03-12T00:32:39.610Z,98710.83
2019-03-12T00:35:08.837Z,98710.94
2019-03-12T00:37:37.628Z,98711.70
2019-03-12T00:40:07.858Z,98711.46
2019-03-12T00:42:36.591Z,98710.48
2019-03-12T00:45:08.481Z,98721.07
2019-03-12T00:47:37.194Z,98717.05
2019-03-12T00:50:10.459Z,98721.92
2019-03-12T00:52:39.216Z,98725.07
2019-03-12T00:55:09.338Z,98718.73
2019-03-12T00:57:38.253Z,98713.64
2019-03-12T01:00:12.591Z,98720.96
2019-03-12T01:02:41.305Z,98720.00
2019-03-12T01:05:10.214Z,98723.95
2019-03-12T01:07:38.973Z,98717.73
2019-03-12T01:10:13.860Z,98714.80
2019-03-12T01:12:42.677Z,98722.03
2019-03-12T01:15:13.774Z,98725.52
2019-03-12T01:17:42.490Z,98719.24
2019-03-12T01:20:15.346Z,98735.53
2019-03-12T01:22:44.104Z,98734.91
2019-03-12T01:25:14.018Z,98736.25
2019-03-12T01:27:42.736Z,98745.45
2019-03-12T01:30:18.999Z,98756.10
2019-03-12T01:32:47.708Z,98753.23
2019-03-12T01:35:16.428Z,98750.65
2019-03-12T01:37:45.220Z,98745.83
2019-03-12T01:40:14.738Z,98735.48
2019-03-12T01:42:43.449Z,98740.89
2019-03-12T01:45:14.759Z,98744.52
2019-03-12T01:47:43.919Z,98748.09
2019-03-12T01:50:14.596Z,98742.77
2019-03-12T01:52:43.482Z,98750.37
2019-03-12T01:55:16.865Z,98755.48
2019-03-12T01:57:45.579Z,98756.13
2019-03-12T02:00:18.307Z,98756.86
2019-03-12T02:02:47.021Z,98758.50
2019-03-12T02:05:15.737Z,98777.70
2019-03-12T02:07:44.624Z,98778.28
2019-03-12T02:10:14.545Z,98781.75
2019-03-12T02:12:43.252Z,98782.16
2019-03-12T02:15:16.407Z,98785.64
2019-03-12T02:17:45.126Z,98771.51
2019-03-12T02:20:18.293Z,98773.50
2019-03-12T02:22:47.144Z,98779.14
2019-03-12T02:25:20.015Z,98786.69
2019-03-12T02:27:48.823Z,98784.00
2019-03-12T02:30:21.381Z,98768.50
2019-03-12T02:32:50.105Z,98771.11
2019-03-12T02:35:18.831Z,98770.47
2019-03-12T02:37:47.621Z,98764.66
2019-03-12T02:40:16.950Z,98766.81
2019-03-12T02:42:45.674Z,98770.04
2019-03-12T02:45:15.915Z,98777.95
2019-03-12T02:47:44.608Z,98781.13
2019-03-12T02:50:14.422Z,98774.04
2019-03-12T02:52:43.804Z,98770.52
2019-03-12T02:55:13.324Z,98773.75
2019-03-12T02:57:42.032Z,98769.69
2019-03-12T03:00:20.482Z,98769.02
2019-03-12T03:02:49.198Z,98766.41
2019-03-12T03:05:18.005Z,98766.24
2019-03-12T03:07:54.242Z,98769.52
2019-03-12T03:10:23.052Z,98779.66
2019-03-12T03:12:52.064Z,98779.91
2019-03-12T03:15:30.536Z,98772.74
2019-03-12T03:17:59.246Z,98785.20
2019-03-12T03:20:27.960Z,98782.13
2019-03-12T03:22:56.810Z,98784.81
2019-03-12T03:25:25.524Z,98778.50
2019-03-12T03:27:54.252Z,98780.19
2019-03-12T03:30:24.508Z,98774.16
2019-03-12T03:32:53.612Z,98773.80
2019-03-12T03:35:22.366Z,98779.70
2019-03-12T03:37:51.178Z,98779.63
2019-03-12T03:40:21.162Z,98780.33
2019-03-12T03:42:50.062Z,98774.72
2019-03-12T03:45:19.542Z,98774.02
2019-03-12T03:47:48.270Z,98774.12
2019-03-12T03:50:18.363Z,98784.31
2019-03-12T03:52:47.185Z,98783.01
2019-03-12T03:55:18.163Z,98780.12
2019-03-12T03:57:46.868Z,98785.48
2019-03-12T04:00:24.087Z,98783.19
2019-03-12T04:02:52.780Z,98774.50
2019-03-12T04:05:21.600Z,98776.60
2019-03-12T04:07:50.383Z,98789.49
2019-03-12T04:10:19.116Z,98798.64
2019-03-12T04:12:47.798Z,98802.48
2019-03-12T04:15:17.965Z,98804.80
2019-03-12T04:17:47.113Z,98823.61
2019-03-12T04:20:18.051Z,98808.23
2019-03-12T04:22:46.923Z,98812.05
2019-03-12T04:25:15.631Z,98825.69
2019-03-12T04:27:44.344Z,98830.44
2019-03-12T04:30:20.274Z,98844.39
2019-03-12T04:32:49.097Z,98855.16
2019-03-12T04:35:23.871Z,98860.11
2019-03-12T04:37:52.573Z,98863.86
2019-03-12T04:40:21.300Z,98877.47
2019-03-12T04:42:50.074Z,98877.53
2019-03-12T04:45:18.796Z,98880.13
2019-03-12T04:47:47.506Z,98878.23
2019-03-12T04:50:16.284Z,98883.27
2019-03-12T04:52:44.986Z,98889.73
2019-03-12T04:55:15.705Z,98890.56
2019-03-12T04:57:44.487Z,98896.99
2019-03-12T05:00:18.154Z,98898.17
2019-03-12T05:02:46.870Z,98902.55
2019-03-12T05:05:15.951Z,98911.62
2019-03-12T05:07:44.661Z,98922.41
2019-03-12T05:10:16.846Z,98921.95
2019-03-12T05:12:45.603Z,98934.16
2019-03-12T05:15:19.207Z,98934.80
2019-03-12T05:17:47.991Z,98931.72
2019-03-12T05:20:17.047Z,98950.55
2019-03-12T05:22:45.855Z,98957.29
2019-03-12T05:25:15.426Z,98950.36
2019-03-12T05:27:44.509Z,98957.17
2019-03-12T05:30:20.525Z,98958.94
2019-03-12T05:32:49.709Z,98968.06
2019-03-12T05:35:18.425Z,98966.86
2019-03-12T05:37:47.134Z,98973.73
2019-03-12T05:40:16.524Z,98973.13
2019-03-12T05:42:45.342Z,98982.03
2019-03-12T05:45:18.075Z,98969.77
2019-03-12T05:47:46.871Z,98967.75
2019-03-12T05:50:21.665Z,98971.25
2019-03-12T05:52:50.377Z,98983.22
2019-03-12T05:55:19.131Z,98985.08
2019-03-12T05:57:47.855Z,99003.55
2019-03-12T06:00:21.786Z,99004.84
2019-03-12T06:02:51.147Z,99017.15
2019-03-12T06:05:19.876Z,99021.58
2019-03-12T06:07:48.587Z,99023.46
2019-03-12T06:10:17.583Z,99026.80
2019-03-12T06:12:46.270Z,99032.95
2019-03-12T06:15:18.262Z,99037.64
2019-03-12T06:17:47.141Z,99052.64
2019-03-12T06:20:16.773Z,99063.02
2019-03-12T06:22:45.495Z,99071.61
2019-03-12T06:25:15.172Z,99075.97
2019-03-12T06:27:43.903Z,99086.47
2019-03-12T06:30:17.029Z,99097.67
2019-03-12T06:32:47.398Z,99100.28
2019-03-12T06:35:17.690Z,99108.19
2019-03-12T06:37:47.977Z,99111.39
2019-03-12T06:40:24.318Z,99111.61
2019-03-12T06:42:54.611Z,99110.27
2019-03-12T06:45:34.016Z,99119.91
2019-03-12T06:48:19.608Z,99117.52
2019-03-12T06:50:53.161Z,99124.63
2019-03-12T06:53:23.444Z,99137.39
2019-03-12T06:55:56.707Z,99142.23
2019-03-12T06:58:27.131Z,99137.22
2019-03-12T07:01:03.595Z,99139.34
2019-03-12T07:03:33.986Z,99145.14
2019-03-12T07:06:10.285Z,99151.09
2019-03-12T07:08:40.613Z,99160.23
2019-03-12T07:11:10.900Z,99162.30
2019-03-12T07:13:41.196Z,99165.45
2019-03-12T07:16:11.594Z,99175.44
2019-03-12T07:18:58.185Z,99161.72
2019-03-12T07:21:34.314Z,99163.47
2019-03-12T07:24:13.160Z,99170.59
2019-03-12T07:26:48.307Z,99181.33
2019-03-12T07:29:30.757Z,99185.39
2019-03-12T07:32:13.187Z,99196.98
2019-03-12T07:34:55.675Z,99191.44
2019-03-12T07:37:26.016Z,99186.24
2019-03-12T07:39:56.304Z,99198.46
2019-03-12T07:42:35.858Z,99198.44
2019-03-12T07:45:12.698Z,99203.57
2019-03-12T07:47:59.378Z,99207.85
2019-03-12T07:50:44.572Z,99201.73
2019-03-12T07:53:14.994Z,99194.82
2019-03-12T07:55:48.018Z,99206.27
2019-03-12T07:58:35.222Z,99209.30
2019-03-12T08:01:02.374Z,99210.08
2019-03-12T08:03:35.838Z,99214.93
2019-03-12T08:06:06.127Z,99217.36
2019-03-12T08:08:36.405Z,99210.89
2019-03-12T08:11:07.121Z,99210.39
2019-03-12T08:13:37.410Z,99206.45
2019-03-12T08:16:10.664Z,99203.47
2019-03-12T08:18:41.113Z,99213.84
2019-03-12T08:21:22.585Z,99206.52
2019-03-12T08:24:13.590Z,99207.80
2019-03-12T08:26:43.087Z,99209.02
2019-03-12T08:29:25.957Z,99211.73
2019-03-12T08:32:08.062Z,99209.39
2019-03-12T08:34:48.886Z,99210.67
2019-03-12T08:37:25.146Z,99209.30
2019-03-12T08:40:04.530Z,99202.72
2019-03-12T08:42:37.876Z,99201.08
2019-03-12T08:45:15.395Z,99210.67
2019-03-12T08:47:46.186Z,99224.14
2019-03-12T08:50:28.848Z,99219.02
2019-03-12T08:53:02.208Z,99220.39
2019-03-12T08:55:39.220Z,99225.30
2019-03-12T08:58:09.502Z,99234.68
2019-03-12T09:00:49.216Z,99238.55
2019-03-12T09:03:28.279Z,99230.55
2019-03-12T09:06:15.200Z,99223.14
2019-03-12T09:08:45.498Z,99226.71
2019-03-12T09:11:15.769Z,99238.76
2019-03-12T09:13:48.842Z,99236.01
2019-03-12T09:16:31.133Z,99247.39
2019-03-12T09:19:07.509Z,99239.16
2019-03-12T09:21:37.795Z,99245.15
2019-03-12T09:24:11.045Z,99247.52
2019-03-12T09:26:57.945Z,99253.12
2019-03-12T09:29:44.427Z,99240.48
2019-03-12T09:32:20.686Z,99245.19
2019-03-12T09:34:53.706Z,99254.14
2019-03-12T09:37:30.136Z,99250.92
2019-03-12T09:40:09.694Z,99257.84
2019-03-12T09:42:52.414Z,99255.81
2019-03-12T09:45:22.700Z,99258.94
2019-03-12T09:47:56.173Z,99266.73
2019-03-12T09:50:29.249Z,99263.91
2019-03-12T09:53:02.322Z,99263.61
2019-03-12T09:55:35.574Z,99263.17
2019-03-12T09:58:14.879Z,99271.73
2019-03-12T10:00:45.170Z,99271.09
2019-03-12T10:03:18.317Z,99274.48
2019-03-12T10:05:48.717Z,99276.65
2019-03-12T10:08:36.136Z,99275.24
2019-03-12T10:11:23.069Z,99274.25
2019-03-12T10:13:53.371Z,99275.30
2019-03-12T10:16:39.975Z,99291.61
2019-03-12T10:19:13.170Z,99297.86
2019-03-12T10:21:49.749Z,99294.58
2019-03-12T10:24:36.176Z,99298.77
2019-03-12T10:27:09.178Z,99293.75
2019-03-12T10:29:45.469Z,99294.23
2019-03-12T10:32:15.821Z,99299.60
2019-03-12T10:34:46.115Z,99304.64
2019-03-12T10:37:31.498Z,99305.84
2019-03-12T10:40:06.067Z,99307.64
2019-03-12T10:42:39.233Z,99315.11
2019-03-12T10:45:17.979Z,99316.33
2019-03-12T10:47:51.160Z,99316.19
2019-03-12T10:50:19.876Z,99319.41
2019-03-12T10:52:48.668Z,99322.87
2019-03-12T10:55:17.504Z,99328.83
2019-03-12T10:57:46.213Z,99334.75
2019-03-12T11:00:19.205Z,99337.20
2019-03-12T11:02:48.070Z,99336.39
2019-03-12T11:05:17.983Z,99338.03
2019-03-12T11:07:46.825Z,99333.72
2019-03-12T11:10:18.681Z,99331.39
2019-03-12T11:12:47.596Z,99329.02
2019-03-12T11:15:17.119Z,99349.97
2019-03-12T11:17:50.091Z,99360.97
2019-03-12T11:20:18.517Z,99365.77
2019-03-12T11:22:47.237Z,99366.63
2019-03-12T11:25:26.689Z,99363.86
2019-03-12T11:27:46.821Z,99364.87
2019-03-12T11:30:17.439Z,99369.69
2019-03-12T11:32:46.277Z,99369.95
2019-03-12T11:35:15.093Z,99371.09
2019-03-12T11:37:43.824Z,99374.18
2019-03-12T11:40:31.867Z,99372.91
2019-03-12T11:42:58.008Z,99378.81
2019-03-12T11:45:36.236Z,99377.92
2019-03-12T11:47:57.301Z,99387.20
2019-03-12T11:50:26.918Z,99389.55
2019-03-12T11:52:59.047Z,99391.95
2019-03-12T11:55:26.362Z,99390.03
2019-03-12T11:57:55.077Z,99397.22
2019-03-12T12:00:26.786Z,99396.91
2019-03-12T12:03:00.159Z,99400.49
2019-03-12T12:05:26.067Z,99399.09
2019-03-12T12:07:54.787Z,99394.42
2019-03-12T12:10:23.654Z,99399.45
2019-03-12T12:12:52.380Z,99411.52
2019-03-12T12:15:21.293Z,99412.54
2019-03-12T12:17:50.170Z,99415.34
2019-03-12T12:20:28.901Z,99415.61
2019-03-12T12:22:49.345Z,99421.77
2019-03-12T12:25:21.334Z,99425.97
2019-03-12T12:27:50.059Z,99426.41
2019-03-12T12:30:22.784Z,99429.20
2019-03-12T12:32:51.953Z,99422.27
2019-03-12T12:35:20.675Z,99419.39
2019-03-12T12:37:49.381Z,99425.86
2019-03-12T12:40:19.479Z,99419.21
2019-03-12T12:42:48.266Z,99412.20
2019-03-12T12:45:25.653Z,99408.02
2019-03-12T12:47:54.361Z,99402.18
2019-03-12T12:50:23.070Z,99409.08
2019-03-12T12:52:52.196Z,99411.86
2019-03-12T12:55:21.010Z,99416.68
2019-03-12T12:57:49.722Z,99415.52
2019-03-12T13:00:26.372Z,99423.77
2019-03-12T13:02:55.167Z,99430.97
2019-03-12T13:05:23.985Z,99431.47
2019-03-12T13:07:57.756Z,99430.06
2019-03-12T13:10:28.116Z,99442.03
2019-03-12T13:12:56.831Z,99448.55
2019-03-12T13:15:25.682Z,99451.17
2019-03-12T13:17:54.397Z,99445.52
2019-03-12T13:20:23.112Z,99444.98
2019-03-12T13:22:52.057Z,99448.47
2019-03-12T13:25:21.072Z,99455.31
2019-03-12T13:27:49.781Z,99455.62
2019-03-12T13:30:21.220Z,99448.88
2019-03-12T13:32:49.941Z,99435.78
2019-03-12T13:35:19.562Z,99436.23
2019-03-12T13:37:51.760Z,99443.00
2019-03-12T13:40:24.751Z,99443.16
2019-03-12T13:42:54.240Z,99445.67
2019-03-12T13:45:28.959Z,99448.12
2019-03-12T13:47:57.837Z,99450.55
2019-03-12T13:50:27.071Z,99440.39
2019-03-12T13:52:55.825Z,99441.30
2019-03-12T13:55:24.734Z,99442.53
2019-03-12T13:57:53.492Z,99447.95
2019-03-12T14:00:23.719Z,99445.50
2019-03-12T14:02:52.634Z,99431.41
2019-03-12T14:05:21.551Z,99435.91
2019-03-12T14:07:50.269Z,99430.87
2019-03-12T14:10:21.887Z,99434.22
2019-03-12T14:12:52.402Z,99434.02
2019-03-12T14:15:32.038Z,99441.77
2019-03-12T14:18:01.519Z,99442.27
2019-03-12T14:20:54.328Z,99438.27
2019-03-12T14:23:26.131Z,99441.69
2019-03-12T14:25:54.849Z,99441.78
2019-03-12T14:28:23.687Z,99447.97
2019-03-12T14:30:52.510Z,99444.73
2019-03-12T14:33:21.238Z,99453.59
2019-03-12T14:35:51.943Z,99460.99
2019-03-12T14:38:20.966Z,99464.12
2019-03-12T14:40:49.878Z,99470.48
2019-03-12T14:43:18.601Z,99465.95
2019-03-12T14:45:54.922Z,99461.20
2019-03-12T14:48:44.455Z,99462.03
2019-03-12T14:51:37.806Z,99472.36
2019-03-12T14:54:09.076Z,99476.70
2019-03-12T14:56:37.896Z,99480.70
2019-03-12T14:59:07.084Z,99481.57
2019-03-12T15:01:35.793Z,99486.78
2019-03-12T15:04:05.020Z,99485.36
2019-03-12T15:06:33.787Z,99492.74
2019-03-12T15:09:02.499Z,99489.44
2019-03-12T15:11:31.210Z,99489.22
2019-03-12T15:14:00.532Z,99479.89
2019-03-12T15:16:29.248Z,99486.72
2019-03-12T15:18:57.959Z,99487.44
2019-03-12T15:21:26.727Z,99487.75
2019-03-12T15:23:55.449Z,99491.11
2019-03-12T15:26:24.164Z,99481.41
2019-03-12T15:28:52.944Z,99486.53
2019-03-12T15:31:21.652Z,99497.00
2019-03-12T15:33:50.478Z,99496.80
2019-03-12T15:36:19.666Z,99500.68
2019-03-12T15:38:48.383Z,99515.17
2019-03-12T15:41:17.117Z,99516.23
2019-03-12T15:43:46.185Z,99518.25
2019-03-12T15:46:14.918Z,99517.58
2019-03-12T15:48:43.636Z,99511.27
2019-03-12T15:51:12.504Z,99517.47
2019-03-12T15:53:41.219Z,99517.10
2019-03-12T15:56:10.023Z,99522.59
2019-03-12T15:58:38.880Z,99523.39
2019-03-12T16:01:07.694Z,99521.39
2019-03-12T16:03:36.425Z,99517.05
2019-03-12T16:06:05.307Z,99524.47
2019-03-12T16:08:34.022Z,99527.22
2019-03-12T16:11:02.739Z,99528.58
2019-03-12T16:13:31.747Z,99536.38
2019-03-12T16:16:00.463Z,99540.84
2019-03-12T16:18:29.255Z,99548.47
2019-03-12T16:20:58.316Z,99553.61
2019-03-12T16:23:27.024Z,99561.94
2019-03-12T16:25:55.745Z,99568.73
2019-03-12T16:28:24.561Z,99569.77
2019-03-12T16:30:53.281Z,99565.13
2019-03-12T16:33:21.994Z,99573.00
2019-03-12T16:35:50.884Z,99577.92
2019-03-12T16:38:19.610Z,99587.55
2019-03-12T16:40:48.334Z,99586.08
2019-03-12T16:43:17.504Z,99592.79
2019-03-12T16:45:46.220Z,99594.38
2019-03-12T16:48:14.947Z,99595.43
2019-03-12T16:50:43.705Z,99595.72
2019-03-12T16:53:12.424Z,99600.11
2019-03-12T16:55:41.135Z,99606.06
2019-03-12T16:58:10.289Z,99615.70
2019-03-12T17:00:39.980Z,99619.54
2019-03-12T17:03:08.704Z,99628.91
2019-03-12T17:05:37.488Z,99632.78
2019-03-12T17:08:06.260Z,99635.17
2019-03-12T17:10:34.971Z,99638.74
2019-03-12T17:13:03.852Z,99641.09
2019-03-12T17:15:32.566Z,99636.45
2019-03-12T17:18:02.677Z,99650.97
2019-03-12T17:20:31.589Z,99657.79
2019-03-12T17:23:00.315Z,99656.80
2019-03-12T17:25:29.049Z,99660.44
2019-03-12T17:27:57.893Z,99666.97
2019-03-12T17:30:26.609Z,99672.95
2019-03-12T17:32:55.337Z,99673.27
2019-03-12T17:35:37.929Z,99678.15
2019-03-12T17:38:06.652Z,99679.95
2019-03-12T17:40:35.376Z,99677.61
2019-03-12T17:43:04.209Z,99678.17
2019-03-12T17:45:32.925Z,99685.41
2019-03-12T17:48:01.647Z,99683.95
2019-03-12T17:50:30.719Z,99692.55
2019-03-12T17:52:59.433Z,99699.28
2019-03-12T17:55:28.155Z,99696.66
2019-03-12T17:57:56.943Z,99706.24
2019-03-12T18:00:39.454Z,99711.17
2019-03-12T18:03:08.399Z,99709.30
2019-03-12T18:05:37.166Z,99717.15
2019-03-12T18:08:05.896Z,99723.98
2019-03-12T18:10:34.667Z,99719.08
2019-03-12T18:13:03.421Z,99722.73
2019-03-12T18:15:32.159Z,99724.55
2019-03-12T18:18:01.033Z,99727.55
2019-03-12T18:20:29.771Z,99732.27
2019-03-12T18:22:58.542Z,99732.25
2019-03-12T18:25:35.293Z,99743.96
2019-03-12T18:28:04.110Z,99745.05
2019-03-12T18:30:32.838Z,99756.48
2019-03-12T18:33:01.617Z,99760.37
2019-03-12T18:35:30.338Z,99763.20
2019-03-12T18:37:59.063Z,99766.34
2019-03-12T18:40:29.468Z,99770.03
2019-03-12T18:42:58.196Z,99773.16
2019-03-12T18:45:29.379Z,99778.13
2019-03-12T18:47:58.254Z,99778.61
2019-03-12T18:50:26.973Z,99778.89
2019-03-12T18:52:55.701Z,99778.38
2019-03-12T18:55:37.983Z,99776.02
2019-03-12T18:58:07.584Z,99777.31
2019-03-12T19:00:37.810Z,99780.72
2019-03-12T19:03:06.577Z,99785.38
2019-03-12T19:05:35.292Z,99792.14
2019-03-12T19:08:04.009Z,99788.51
2019-03-12T19:10:33.138Z,99791.34
2019-03-12T19:13:01.871Z,99796.30
2019-03-12T19:15:30.683Z,99804.61
2019-03-12T19:17:59.821Z,99807.20
2019-03-12T19:20:28.656Z,99819.67
2019-03-12T19:22:57.365Z,99822.28
2019-03-12T19:25:29.157Z,99825.92
2019-03-12T19:28:00.169Z,99830.58
2019-03-12T19:30:28.342Z,99830.06
2019-03-12T19:32:58.704Z,99833.45
2019-03-12T19:35:28.829Z,99837.09
2019-03-12T19:37:58.859Z,99841.25
2019-03-12T19:40:36.735Z,99843.05
2019-03-12T19:43:05.654Z,99839.67
2019-03-12T19:45:34.375Z,99838.38
2019-03-12T19:48:04.473Z,99849.02
2019-03-12T19:50:33.221Z,99859.14
2019-03-12T19:53:01.980Z,99862.00
2019-03-12T19:55:42.437Z,99863.03
2019-03-12T19:58:11.242Z,99852.89
2019-03-12T20:00:39.960Z,99860.94
2019-03-12T20:03:12.021Z,99867.14
2019-03-12T20:05:39.554Z,99872.59
2019-03-12T20:08:08.272Z,99870.27
2019-03-12T20:10:51.951Z,99873.83
2019-03-12T20:13:41.443Z,99875.41
2019-03-12T20:16:33.102Z,99876.72
2019-03-12T20:19:10.558Z,99873.62
2019-03-12T20:22:00.616Z,99876.50
2019-03-12T20:24:51.769Z,99879.06
2019-03-12T20:27:29.300Z,99882.95
2019-03-12T20:30:20.460Z,99888.86
2019-03-12T20:33:19.600Z,99882.19
2019-03-12T20:36:06.225Z,99875.16
2019-03-12T20:38:57.782Z,99880.00
2019-03-12T20:41:38.473Z,99881.61
2019-03-12T20:44:26.918Z,99877.16
2019-03-12T20:47:31.943Z,99877.72
2019-03-12T20:50:09.366Z,99881.33
2019-03-12T20:52:50.141Z,99886.44
2019-03-12T20:55:55.903Z,99886.16
2019-03-12T20:58:59.316Z,99886.12
2019-03-12T21:01:48.197Z,99885.65
2019-03-12T21:04:36.236Z,99884.30
2019-03-12T21:07:27.478Z,99889.00
2019-03-12T21:10:21.517Z,99881.45
2019-03-12T21:13:14.318Z,99875.20
2019-03-12T21:16:14.667Z,99875.97
2019-03-12T21:19:15.326Z,99866.38
2019-03-12T21:22:14.064Z,99866.14
2019-03-12T21:24:46.084Z,99857.73
2019-03-12T21:27:26.456Z,99858.21
2019-03-12T21:29:54.078Z,99859.83
2019-03-12T21:32:22.878Z,99861.39
2019-03-12T21:34:51.586Z,99857.23
2019-03-12T21:37:20.467Z,99862.37
2019-03-12T21:39:55.675Z,99873.03
2019-03-12T21:42:19.639Z,99868.05
2019-03-12T21:44:48.504Z,99861.77
2019-03-12T21:47:17.436Z,99865.31
2019-03-12T21:49:46.163Z,99863.64
2019-03-12T21:52:15.062Z,99857.31
2019-03-12T21:54:43.778Z,99860.08
2019-03-12T21:57:12.489Z,99858.00
2019-03-12T21:59:41.448Z,99857.98
2019-03-12T22:02:10.165Z,99853.33
2019-03-12T22:04:38.899Z,99849.94
2019-03-12T22:07:07.775Z,99848.43
2019-03-12T22:09:36.501Z,99852.62
2019-03-12T22:12:05.269Z,99851.00
2019-03-12T22:14:34.153Z,99847.91
2019-03-12T22:17:03.183Z,99854.16
2019-03-12T22:19:31.897Z,99853.58
2019-03-12T22:22:02.341Z,99847.63
2019-03-12T22:24:31.067Z,99847.41
2019-03-12T22:26:59.779Z,99851.02
2019-03-12T22:29:28.615Z,99853.27
2019-03-12T22:31:57.336Z,99841.17
2019-03-12T22:34:26.057Z,99841.63
2019-03-12T22:36:54.950Z,99844.47
2019-03-12T22:39:23.634Z,99838.80
2019-03-12T22:41:52.360Z,99831.20
2019-03-12T22:44:21.165Z,99838.42
2019-03-12T22:46:49.894Z,99843.66
2019-03-12T22:49:18.618Z,99842.09
2019-03-12T22:51:49.031Z,99848.78
2019-03-12T22:54:17.752Z,99846.74
2019-03-12T22:56:46.477Z,99848.00
2019-03-12T22:59:15.412Z,99849.08
2019-03-12T23:01:44.233Z,99855.01
2019-03-12T23:04:12.966Z,99850.87
2019-03-12T23:06:41.817Z,99857.13
2019-03-12T23:09:10.536Z,99859.95
2019-03-12T23:11:39.247Z,99852.27
2019-03-12T23:14:08.144Z,99858.25
2019-03-12T23:16:36.865Z,99857.48
2019-03-12T23:19:05.579Z,99857.94
2019-03-12T23:21:34.436Z,99857.91
2019-03-12T23:24:03.154Z,99854.05
2019-03-12T23:26:31.876Z,99856.36
2019-03-12T23:29:00.804Z,99854.48
2019-03-12T23:31:29.528Z,99853.64
2019-03-12T23:33:58.344Z,99854.22
2019-03-12T23:36:27.233Z,99853.55
2019-03-12T23:38:55.951Z,99853.58
2019-03-12T23:41:24.671Z,99851.75
2019-03-12T23:43:53.988Z,99854.87
2019-03-12T23:46:22.699Z,99860.12
2019-03-12T23:48:51.528Z,99862.41
2019-03-12T23:51:20.514Z,99860.51
2019-03-12T23:53:49.236Z,99864.08
2019-03-12T23:56:17.944Z,99862.73
2019-03-12T23:58:46.815Z,99866.58
